Portada
METAR-TAF:

METAR-TAF

Aeroports :

West Bend, Wisconsin, Estats Units d'Amèrica

West Bend Municipal Airport

latitud: 43-25-20N, longitud: 088-07-41W, altitud: 270 m

Observació

L'informe es va fer fa 15 hores i 43 minuts, a les 15:15 UTC
Vent 3 kt del Sud-Est
Temperatura 3°C
Humitat 100%
Pressió 1009 hPa
Visibilitat: 16.1 km
Cel ennuvolat a una alçada de 1800 ft
Cel cobert a una alçada de 11000 ft
pluja

METAR: KETB 201515Z AUTO 14003KT 10SM RA BKN018 OVC110 03/03 A2980 RMK AO2

Hora: 00:58 (06:58 UTC)


TAF: manca

Observacions i pronòstics meteorològics de més de 4000 aeroports (METAR i TAF).

Les estacions disponibles són els punts grocs i vermells al mapa.

Posi el ratolí al punt desitjat per veure el nom de l'estació.

Feu clic per veure les observacions i els pronòstics meteorològics.

Per canviar el mapa: feu clic els botons verds amb una creu de color negre per apropar; al botó verd amb un guió per allunyar la imatge; o en les fletxes verdes per a mapes adjacents.


METAR-TAF: